sensor_id;sensor_type;location;lat;lon;timestamp;pressure;altitude;pressure_sealevel;temperature;humidity
56689;BME280;42565;53.342;-1.534;2023-02-16T00:01:25;99267.78;;;6.90;68.04
56689;BME280;42565;53.342;-1.534;2023-02-16T00:03:54;99272.50;;;6.38;69.48
56689;BME280;42565;53.342;-1.534;2023-02-16T00:06:22;99266.44;;;6.57;67.91
56689;BME280;42565;53.342;-1.534;2023-02-16T00:08:51;99258.13;;;7.42;65.74
56689;BME280;42565;53.342;-1.534;2023-02-16T00:11:22;99254.78;;;7.69;64.95
56689;BME280;42565;53.342;-1.534;2023-02-16T00:13:50;99251.17;;;7.80;64.57
56689;BME280;42565;53.342;-1.534;2023-02-16T00:16:19;99245.12;;;7.20;65.41
56689;BME280;42565;53.342;-1.534;2023-02-16T00:18:47;99248.05;;;7.64;65.32
56689;BME280;42565;53.342;-1.534;2023-02-16T00:21:20;99248.31;;;7.39;65.87
56689;BME280;42565;53.342;-1.534;2023-02-16T00:23:48;99246.87;;;7.00;67.33
56689;BME280;42565;53.342;-1.534;2023-02-16T00:26:17;99241.35;;;7.01;67.94
56689;BME280;42565;53.342;-1.534;2023-02-16T00:28:45;99233.67;;;7.14;66.63
56689;BME280;42565;53.342;-1.534;2023-02-16T00:31:16;99231.33;;;7.32;65.81
56689;BME280;42565;53.342;-1.534;2023-02-16T00:33:44;99228.11;;;7.39;65.52
56689;BME280;42565;53.342;-1.534;2023-02-16T00:36:11;99226.83;;;7.28;65.18
56689;BME280;42565;53.342;-1.534;2023-02-16T00:38:38;99225.64;;;7.84;64.22
56689;BME280;42565;53.342;-1.534;2023-02-16T00:41:08;99220.48;;;7.79;64.43
56689;BME280;42565;53.342;-1.534;2023-02-16T00:43:40;99216.12;;;7.74;64.43
56689;BME280;42565;53.342;-1.534;2023-02-16T00:46:08;99219.25;;;7.73;63.23
56689;BME280;42565;53.342;-1.534;2023-02-16T00:48:35;99211.33;;;7.40;63.79
56689;BME280;42565;53.342;-1.534;2023-02-16T00:51:02;99209.14;;;7.23;64.35
56689;BME280;42565;53.342;-1.534;2023-02-16T00:53:29;99220.47;;;6.77;64.80
56689;BME280;42565;53.342;-1.534;2023-02-16T00:55:55;99222.99;;;7.57;64.71
56689;BME280;42565;53.342;-1.534;2023-02-16T00:58:25;99232.87;;;6.50;65.70
56689;BME280;42565;53.342;-1.534;2023-02-16T01:00:55;99231.03;;;6.75;66.38
56689;BME280;42565;53.342;-1.534;2023-02-16T01:03:25;99220.61;;;6.47;66.54
56689;BME280;42565;53.342;-1.534;2023-02-16T01:05:54;99208.57;;;7.15;63.99
56689;BME280;42565;53.342;-1.534;2023-02-16T01:08:21;99203.86;;;6.78;64.32
56689;BME280;42565;53.342;-1.534;2023-02-16T01:10:48;99204.57;;;6.68;63.47
56689;BME280;42565;53.342;-1.534;2023-02-16T01:13:17;99198.37;;;6.99;63.10
56689;BME280;42565;53.342;-1.534;2023-02-16T01:15:45;99198.35;;;6.88;62.36
56689;BME280;42565;53.342;-1.534;2023-02-16T01:18:14;99199.17;;;7.19;61.92
56689;BME280;42565;53.342;-1.534;2023-02-16T01:20:41;99198.75;;;7.35;61.67
56689;BME280;42565;53.342;-1.534;2023-02-16T01:23:09;99204.91;;;6.70;63.19
56689;BME280;42565;53.342;-1.534;2023-02-16T01:25:36;99202.20;;;6.54;63.50
56689;BME280;42565;53.342;-1.534;2023-02-16T01:28:16;99201.83;;;7.35;62.09
56689;BME280;42565;53.342;-1.534;2023-02-16T01:30:44;99205.81;;;7.42;60.88
56689;BME280;42565;53.342;-1.534;2023-02-16T01:33:11;99206.28;;;7.78;60.63
56689;BME280;42565;53.342;-1.534;2023-02-16T01:35:39;99205.09;;;7.10;61.18
56689;BME280;42565;53.342;-1.534;2023-02-16T01:38:13;99209.17;;;6.81;61.59
56689;BME280;42565;53.342;-1.534;2023-02-16T01:40:47;99202.18;;;7.20;62.14
56689;BME280;42565;53.342;-1.534;2023-02-16T01:43:20;99202.52;;;7.21;61.22
56689;BME280;42565;53.342;-1.534;2023-02-16T01:45:54;99200.13;;;8.17;59.51
56689;BME280;42565;53.342;-1.534;2023-02-16T01:48:27;99197.02;;;7.91;59.56
56689;BME280;42565;53.342;-1.534;2023-02-16T01:51:00;99193.97;;;7.89;59.25
56689;BME280;42565;53.342;-1.534;2023-02-16T01:53:32;99191.13;;;7.85;59.21
56689;BME280;42565;53.342;-1.534;2023-02-16T01:56:04;99184.74;;;7.83;59.47
56689;BME280;42565;53.342;-1.534;2023-02-16T01:58:38;99186.20;;;7.39;59.81
56689;BME280;42565;53.342;-1.534;2023-02-16T02:01:43;99181.09;;;7.52;59.60
56689;BME280;42565;53.342;-1.534;2023-02-16T02:04:19;99181.05;;;8.01;58.24
56689;BME280;42565;53.342;-1.534;2023-02-16T02:06:47;99174.88;;;8.35;57.54
56689;BME280;42565;53.342;-1.534;2023-02-16T02:09:18;99171.65;;;8.35;57.53
56689;BME280;42565;53.342;-1.534;2023-02-16T02:11:51;99168.25;;;7.69;58.28
56689;BME280;42565;53.342;-1.534;2023-02-16T02:14:24;99164.50;;;7.63;58.94
56689;BME280;42565;53.342;-1.534;2023-02-16T02:16:55;99162.64;;;8.01;58.33
56689;BME280;42565;53.342;-1.534;2023-02-16T02:19:23;99158.14;;;8.03;58.03
56689;BME280;42565;53.342;-1.534;2023-02-16T02:22:08;99155.75;;;8.23;57.56
56689;BME280;42565;53.342;-1.534;2023-02-16T02:25:00;99150.00;;;8.43;57.35
56689;BME280;42565;53.342;-1.534;2023-02-16T02:27:31;99148.53;;;8.72;56.62
56689;BME280;42565;53.342;-1.534;2023-02-16T02:30:13;99147.88;;;8.70;56.87
56689;BME280;42565;53.342;-1.534;2023-02-16T02:32:53;99141.22;;;8.06;57.87
56689;BME280;42565;53.342;-1.534;2023-02-16T02:35:31;99137.10;;;8.18;57.09
56689;BME280;42565;53.342;-1.534;2023-02-16T02:38:07;99130.75;;;8.04;58.32
56689;BME280;42565;53.342;-1.534;2023-02-16T02:40:45;99121.42;;;7.74;59.63
56689;BME280;42565;53.342;-1.534;2023-02-16T02:43:16;99119.29;;;7.22;60.06
56689;BME280;42565;53.342;-1.534;2023-02-16T02:45:47;99114.51;;;7.87;59.25
56689;BME280;42565;53.342;-1.534;2023-02-16T02:48:17;99115.90;;;7.91;58.90
56689;BME280;42565;53.342;-1.534;2023-02-16T02:50:48;99118.41;;;7.80;59.62
56689;BME280;42565;53.342;-1.534;2023-02-16T02:53:16;99121.64;;;8.53;58.73
56689;BME280;42565;53.342;-1.534;2023-02-16T02:55:46;99116.99;;;7.46;59.67
56689;BME280;42565;53.342;-1.534;2023-02-16T02:58:16;99110.16;;;7.92;58.88
56689;BME280;42565;53.342;-1.534;2023-02-16T03:00:45;99106.35;;;7.69;59.94
56689;BME280;42565;53.342;-1.534;2023-02-16T03:03:16;99109.12;;;7.21;60.53
56689;BME280;42565;53.342;-1.534;2023-02-16T03:05:47;99111.70;;;7.70;60.40
56689;BME280;42565;53.342;-1.534;2023-02-16T03:08:19;99108.22;;;7.24;61.88
56689;BME280;42565;53.342;-1.534;2023-02-16T03:10:50;99099.79;;;7.68;62.39
56689;BME280;42565;53.342;-1.534;2023-02-16T03:13:23;99099.10;;;7.10;64.87
56689;BME280;42565;53.342;-1.534;2023-02-16T03:15:53;99097.58;;;6.51;68.14
56689;BME280;42565;53.342;-1.534;2023-02-16T03:18:24;99081.27;;;6.50;68.85
56689;BME280;42565;53.342;-1.534;2023-02-16T03:20:52;99078.68;;;6.50;70.56
56689;BME280;42565;53.342;-1.534;2023-02-16T03:23:21;99076.27;;;7.09;68.54
56689;BME280;42565;53.342;-1.534;2023-02-16T03:25:50;99075.30;;;6.84;70.44
56689;BME280;42565;53.342;-1.534;2023-02-16T03:28:19;99070.02;;;7.30;68.90
56689;BME280;42565;53.342;-1.534;2023-02-16T03:30:49;99065.68;;;7.02;70.63
56689;BME280;42565;53.342;-1.534;2023-02-16T03:33:18;99056.62;;;6.90;70.95
56689;BME280;42565;53.342;-1.534;2023-02-16T03:35:46;99052.84;;;6.23;74.76
56689;BME280;42565;53.342;-1.534;2023-02-16T03:38:13;99046.83;;;6.22;75.17
56689;BME280;42565;53.342;-1.534;2023-02-16T03:40:42;99047.04;;;5.54;77.49
56689;BME280;42565;53.342;-1.534;2023-02-16T03:43:09;99040.47;;;5.53;79.02
56689;BME280;42565;53.342;-1.534;2023-02-16T03:45:38;99039.88;;;5.45;79.73
56689;BME280;42565;53.342;-1.534;2023-02-16T03:48:07;99038.04;;;6.61;76.50
56689;BME280;42565;53.342;-1.534;2023-02-16T03:50:34;99035.40;;;6.38;77.09
56689;BME280;42565;53.342;-1.534;2023-02-16T03:53:01;99037.40;;;5.83;78.23
56689;BME280;42565;53.342;-1.534;2023-02-16T03:55:28;99040.33;;;5.92;78.40
56689;BME280;42565;53.342;-1.534;2023-02-16T03:57:55;99041.36;;;6.76;75.92
56689;BME280;42565;53.342;-1.534;2023-02-16T04:00:22;99044.09;;;6.36;77.06
56689;BME280;42565;53.342;-1.534;2023-02-16T04:02:49;99039.98;;;6.68;75.83
56689;BME280;42565;53.342;-1.534;2023-02-16T04:05:16;99034.72;;;6.93;75.15
56689;BME280;42565;53.342;-1.534;2023-02-16T04:07:43;99031.86;;;6.96;75.28
56689;BME280;42565;53.342;-1.534;2023-02-16T04:10:10;99024.41;;;6.59;76.24
56689;BME280;42565;53.342;-1.534;2023-02-16T04:12:36;99019.10;;;5.74;79.78
56689;BME280;42565;53.342;-1.534;2023-02-16T04:15:06;99016.30;;;5.14;83.42
56689;BME280;42565;53.342;-1.534;2023-02-16T04:17:34;99018.47;;;4.90;84.32
56689;BME280;42565;53.342;-1.534;2023-02-16T04:20:02;99009.12;;;5.12;84.30
56689;BME280;42565;53.342;-1.534;2023-02-16T04:22:29;99016.89;;;4.93;83.80
56689;BME280;42565;53.342;-1.534;2023-02-16T04:24:56;99013.12;;;5.38;83.20
56689;BME280;42565;53.342;-1.534;2023-02-16T04:27:23;99011.11;;;5.49;82.42
56689;BME280;42565;53.342;-1.534;2023-02-16T04:29:50;98993.35;;;6.48;79.48
56689;BME280;42565;53.342;-1.534;2023-02-16T04:32:16;98991.89;;;5.87;81.63
56689;BME280;42565;53.342;-1.534;2023-02-16T04:34:43;98994.41;;;5.80;81.64
56689;BME280;42565;53.342;-1.534;2023-02-16T04:37:10;98998.99;;;6.36;79.87
56689;BME280;42565;53.342;-1.534;2023-02-16T04:39:38;99002.65;;;5.42;81.79
56689;BME280;42565;53.342;-1.534;2023-02-16T04:42:05;98992.06;;;5.62;82.81
56689;BME280;42565;53.342;-1.534;2023-02-16T04:44:32;98990.72;;;4.71;84.74
56689;BME280;42565;53.342;-1.534;2023-02-16T04:46:58;98983.45;;;5.32;83.63
56689;BME280;42565;53.342;-1.534;2023-02-16T04:49:25;98980.24;;;5.37;83.04
56689;BME280;42565;53.342;-1.534;2023-02-16T04:51:52;98982.49;;;5.90;82.11
56689;BME280;42565;53.342;-1.534;2023-02-16T04:54:19;98980.97;;;5.18;82.64
56689;BME280;42565;53.342;-1.534;2023-02-16T04:56:47;98984.21;;;5.35;83.02
56689;BME280;42565;53.342;-1.534;2023-02-16T04:59:15;98979.74;;;5.34;84.29
56689;BME280;42565;53.342;-1.534;2023-02-16T05:01:42;98980.83;;;5.28;83.43
56689;BME280;42565;53.342;-1.534;2023-02-16T05:04:10;98977.99;;;5.09;84.24
56689;BME280;42565;53.342;-1.534;2023-02-16T05:06:37;98976.27;;;5.25;83.38
56689;BME280;42565;53.342;-1.534;2023-02-16T05:09:05;98974.96;;;5.57;83.85
56689;BME280;42565;53.342;-1.534;2023-02-16T05:11:33;98976.59;;;5.42;83.58
56689;BME280;42565;53.342;-1.534;2023-02-16T05:14:00;98969.74;;;5.63;82.66
56689;BME280;42565;53.342;-1.534;2023-02-16T05:16:27;98965.19;;;5.26;83.55
56689;BME280;42565;53.342;-1.534;2023-02-16T05:18:55;98970.78;;;5.61;83.24
56689;BME280;42565;53.342;-1.534;2023-02-16T05:21:21;98968.10;;;5.59;84.80
56689;BME280;42565;53.342;-1.534;2023-02-16T05:23:48;98953.51;;;5.79;83.80
56689;BME280;42565;53.342;-1.534;2023-02-16T05:26:15;98947.66;;;5.77;84.12
56689;BME280;42565;53.342;-1.534;2023-02-16T05:28:41;98948.38;;;5.73;83.61
56689;BME280;42565;53.342;-1.534;2023-02-16T05:31:08;98946.93;;;5.31;84.57
56689;BME280;42565;53.342;-1.534;2023-02-16T05:33:35;98944.91;;;5.70;85.64
56689;BME280;42565;53.342;-1.534;2023-02-16T05:36:02;98941.87;;;5.08;86.85
56689;BME280;42565;53.342;-1.534;2023-02-16T05:38:29;98937.35;;;5.40;85.10
56689;BME280;42565;53.342;-1.534;2023-02-16T05:40:58;98931.59;;;5.49;85.11
56689;BME280;42565;53.342;-1.534;2023-02-16T05:43:25;98928.48;;;5.53;84.72
56689;BME280;42565;53.342;-1.534;2023-02-16T05:45:52;98923.26;;;5.49;85.06
56689;BME280;42565;53.342;-1.534;2023-02-16T05:48:19;98921.47;;;5.51;86.12
56689;BME280;42565;53.342;-1.534;2023-02-16T05:50:47;98923.39;;;5.67;84.88
56689;BME280;42565;53.342;-1.534;2023-02-16T05:53:14;98915.03;;;5.11;89.54
56689;BME280;42565;53.342;-1.534;2023-02-16T05:55:43;98913.18;;;4.84;88.97
56689;BME280;42565;53.342;-1.534;2023-02-16T05:58:10;98911.32;;;5.35;88.58
56689;BME280;42565;53.342;-1.534;2023-02-16T06:00:36;98913.45;;;4.85;91.00
56689;BME280;42565;53.342;-1.534;2023-02-16T06:03:03;98910.01;;;4.85;90.96
56689;BME280;42565;53.342;-1.534;2023-02-16T06:05:30;98917.59;;;4.65;92.38
56689;BME280;42565;53.342;-1.534;2023-02-16T06:07:57;98913.39;;;4.91;92.59
56689;BME280;42565;53.342;-1.534;2023-02-16T06:10:24;98911.70;;;4.97;92.71
56689;BME280;42565;53.342;-1.534;2023-02-16T06:12:50;98915.00;;;4.95;92.64
56689;BME280;42565;53.342;-1.534;2023-02-16T06:15:17;98910.60;;;4.33;93.28
56689;BME280;42565;53.342;-1.534;2023-02-16T06:17:44;98908.08;;;5.10;92.54
56689;BME280;42565;53.342;-1.534;2023-02-16T06:20:11;98906.27;;;5.16;90.85
56689;BME280;42565;53.342;-1.534;2023-02-16T06:22:38;98910.94;;;5.13;92.39
56689;BME280;42565;53.342;-1.534;2023-02-16T06:25:05;98916.15;;;4.61;92.14
56689;BME280;42565;53.342;-1.534;2023-02-16T06:27:33;98908.68;;;5.22;92.85
56689;BME280;42565;53.342;-1.534;2023-02-16T06:30:00;98915.21;;;5.29;92.72
56689;BME280;42565;53.342;-1.534;2023-02-16T06:32:27;98906.91;;;5.28;91.83
56689;BME280;42565;53.342;-1.534;2023-02-16T06:34:55;98915.08;;;5.08;92.57
56689;BME280;42565;53.342;-1.534;2023-02-16T06:37:21;98917.34;;;4.68;92.65
56689;BME280;42565;53.342;-1.534;2023-02-16T06:39:48;98909.24;;;5.07;94.58
56689;BME280;42565;53.342;-1.534;2023-02-16T06:42:15;98919.24;;;5.21;93.85
56689;BME280;42565;53.342;-1.534;2023-02-16T06:44:43;98914.63;;;4.68;95.67
56689;BME280;42565;53.342;-1.534;2023-02-16T06:47:10;98911.73;;;4.62;95.89
56689;BME280;42565;53.342;-1.534;2023-02-16T06:49:38;98916.94;;;4.92;94.09
56689;BME280;42565;53.342;-1.534;2023-02-16T06:52:05;98911.56;;;5.23;92.60
56689;BME280;42565;53.342;-1.534;2023-02-16T06:54:32;98915.95;;;5.39;91.17
56689;BME280;42565;53.342;-1.534;2023-02-16T06:56:58;98916.80;;;5.29;91.61
56689;BME280;42565;53.342;-1.534;2023-02-16T06:59:25;98915.26;;;5.30;92.01
56689;BME280;42565;53.342;-1.534;2023-02-16T07:01:52;98913.35;;;5.53;93.24
56689;BME280;42565;53.342;-1.534;2023-02-16T07:04:20;98916.98;;;5.41;94.83
56689;BME280;42565;53.342;-1.534;2023-02-16T07:06:47;98914.69;;;5.10;95.69
56689;BME280;42565;53.342;-1.534;2023-02-16T07:09:15;98910.72;;;5.23;94.61
56689;BME280;42565;53.342;-1.534;2023-02-16T07:11:41;98912.43;;;5.12;94.94
56689;BME280;42565;53.342;-1.534;2023-02-16T07:14:09;98913.99;;;5.68;92.29
56689;BME280;42565;53.342;-1.534;2023-02-16T07:16:36;98911.68;;;6.04;90.49
56689;BME280;42565;53.342;-1.534;2023-02-16T07:19:03;98911.24;;;5.48;92.86
56689;BME280;42565;53.342;-1.534;2023-02-16T07:21:29;98911.63;;;5.50;91.58
56689;BME280;42565;53.342;-1.534;2023-02-16T07:23:57;98908.45;;;5.39;93.32
56689;BME280;42565;53.342;-1.534;2023-02-16T07:26:24;98897.65;;;5.41;90.35
56689;BME280;42565;53.342;-1.534;2023-02-16T07:28:51;98892.82;;;5.83;91.15
56689;BME280;42565;53.342;-1.534;2023-02-16T07:31:18;98892.30;;;6.31;88.85
56689;BME280;42565;53.342;-1.534;2023-02-16T07:33:45;98896.04;;;6.68;87.61
56689;BME280;42565;53.342;-1.534;2023-02-16T07:36:12;98890.85;;;6.45;88.07
56689;BME280;42565;53.342;-1.534;2023-02-16T07:38:39;98892.49;;;6.99;85.52
56689;BME280;42565;53.342;-1.534;2023-02-16T07:41:07;98891.41;;;6.45;88.06
56689;BME280;42565;53.342;-1.534;2023-02-16T07:43:34;98893.55;;;6.15;88.79
56689;BME280;42565;53.342;-1.534;2023-02-16T07:46:02;98895.54;;;6.05;90.30
56689;BME280;42565;53.342;-1.534;2023-02-16T07:48:29;98886.71;;;6.11;89.84
56689;BME280;42565;53.342;-1.534;2023-02-16T07:50:56;98897.05;;;5.75;93.67
56689;BME280;42565;53.342;-1.534;2023-02-16T07:53:23;98895.76;;;5.87;94.13
56689;BME280;42565;53.342;-1.534;2023-02-16T07:55:50;98902.95;;;5.83;93.07
56689;BME280;42565;53.342;-1.534;2023-02-16T07:58:16;98909.94;;;6.65;89.23
56689;BME280;42565;53.342;-1.534;2023-02-16T08:00:43;98905.64;;;6.28;91.30
56689;BME280;42565;53.342;-1.534;2023-02-16T08:03:10;98909.50;;;6.72;89.54
56689;BME280;42565;53.342;-1.534;2023-02-16T08:05:37;98906.87;;;6.54;89.29
56689;BME280;42565;53.342;-1.534;2023-02-16T08:08:04;98902.01;;;6.46;89.65
56689;BME280;42565;53.342;-1.534;2023-02-16T08:10:30;98897.53;;;6.32;90.66
56689;BME280;42565;53.342;-1.534;2023-02-16T08:12:58;98903.51;;;6.43;89.87
56689;BME280;42565;53.342;-1.534;2023-02-16T08:15:25;98903.80;;;6.83;88.70
56689;BME280;42565;53.342;-1.534;2023-02-16T08:17:51;98901.96;;;7.22;87.49
56689;BME280;42565;53.342;-1.534;2023-02-16T08:20:18;98906.81;;;6.69;89.79
56689;BME280;42565;53.342;-1.534;2023-02-16T08:22:46;98908.90;;;7.27;86.96
56689;BME280;42565;53.342;-1.534;2023-02-16T08:25:13;98909.22;;;7.06;88.42
56689;BME280;42565;53.342;-1.534;2023-02-16T08:27:41;98899.79;;;7.07;89.25
56689;BME280;42565;53.342;-1.534;2023-02-16T08:30:10;98894.97;;;7.04;89.60
56689;BME280;42565;53.342;-1.534;2023-02-16T08:32:37;98904.93;;;6.95;89.93
56689;BME280;42565;53.342;-1.534;2023-02-16T08:35:06;98907.17;;;7.47;87.89
56689;BME280;42565;53.342;-1.534;2023-02-16T08:37:33;98904.91;;;7.63;88.29
56689;BME280;42565;53.342;-1.534;2023-02-16T08:40:01;98912.02;;;7.27;88.60
56689;BME280;42565;53.342;-1.534;2023-02-16T08:42:28;98927.86;;;6.93;90.19
56689;BME280;42565;53.342;-1.534;2023-02-16T08:44:55;98934.02;;;7.29;89.78
56689;BME280;42565;53.342;-1.534;2023-02-16T08:47:22;98928.35;;;6.83;90.94
56689;BME280;42565;53.342;-1.534;2023-02-16T08:49:49;98924.46;;;7.38;90.44
56689;BME280;42565;53.342;-1.534;2023-02-16T08:52:16;98911.89;;;7.20;91.56
56689;BME280;42565;53.342;-1.534;2023-02-16T08:54:43;98905.90;;;7.12;91.21
56689;BME280;42565;53.342;-1.534;2023-02-16T08:57:09;98911.01;;;7.40;90.11
56689;BME280;42565;53.342;-1.534;2023-02-16T08:59:36;98916.98;;;7.90;89.93
56689;BME280;42565;53.342;-1.534;2023-02-16T09:02:03;98910.54;;;7.51;90.65
56689;BME280;42565;53.342;-1.534;2023-02-16T09:04:31;98912.21;;;7.04;92.39
56689;BME280;42565;53.342;-1.534;2023-02-16T09:06:57;98907.66;;;7.34;92.56
56689;BME280;42565;53.342;-1.534;2023-02-16T09:09:24;98905.79;;;7.64;89.71
56689;BME280;42565;53.342;-1.534;2023-02-16T09:11:52;98912.78;;;7.17;91.33
56689;BME280;42565;53.342;-1.534;2023-02-16T09:14:20;98912.34;;;6.98;92.78
56689;BME280;42565;53.342;-1.534;2023-02-16T09:16:47;98906.33;;;7.04;92.42
56689;BME280;42565;53.342;-1.534;2023-02-16T09:19:16;98907.96;;;7.48;90.57
56689;BME280;42565;53.342;-1.534;2023-02-16T09:21:45;98913.67;;;7.54;90.63
56689;BME280;42565;53.342;-1.534;2023-02-16T09:24:12;98920.63;;;7.67;92.77
56689;BME280;42565;53.342;-1.534;2023-02-16T09:26:40;98914.19;;;7.31;93.47
56689;BME280;42565;53.342;-1.534;2023-02-16T09:29:08;98903.47;;;7.43;94.14
56689;BME280;42565;53.342;-1.534;2023-02-16T09:31:35;98908.37;;;7.17;95.42
56689;BME280;42565;53.342;-1.534;2023-02-16T09:34:05;98912.60;;;7.39;93.41
56689;BME280;42565;53.342;-1.534;2023-02-16T09:36:33;98916.82;;;7.63;93.58
56689;BME280;42565;53.342;-1.534;2023-02-16T09:39:01;98918.94;;;7.31;94.59
56689;BME280;42565;53.342;-1.534;2023-02-16T09:41:31;98921.44;;;7.52;93.45
56689;BME280;42565;53.342;-1.534;2023-02-16T09:44:09;98918.56;;;7.86;92.21
56689;BME280;42565;53.342;-1.534;2023-02-16T09:46:39;98915.92;;;7.91;92.05
56689;BME280;42565;53.342;-1.534;2023-02-16T09:49:25;98914.61;;;7.81;93.81
56689;BME280;42565;53.342;-1.534;2023-02-16T09:51:58;98918.19;;;7.17;95.16
56689;BME280;42565;53.342;-1.534;2023-02-16T09:54:34;98924.87;;;7.20;97.48
56689;BME280;42565;53.342;-1.534;2023-02-16T09:57:12;98929.51;;;7.14;97.33
56689;BME280;42565;53.342;-1.534;2023-02-16T09:59:50;98923.64;;;7.60;96.62
56689;BME280;42565;53.342;-1.534;2023-02-16T10:02:33;98921.52;;;7.98;93.91
56689;BME280;42565;53.342;-1.534;2023-02-16T10:05:15;98923.18;;;8.53;91.75
56689;BME280;42565;53.342;-1.534;2023-02-16T10:07:51;98930.47;;;8.76;89.23
56689;BME280;42565;53.342;-1.534;2023-02-16T10:10:23;98924.35;;;8.29;90.35
56689;BME280;42565;53.342;-1.534;2023-02-16T10:12:55;98923.27;;;8.59;92.41
56689;BME280;42565;53.342;-1.534;2023-02-16T10:15:26;98928.07;;;8.81;89.16
56689;BME280;42565;53.342;-1.534;2023-02-16T10:17:58;98928.18;;;8.70;90.48
56689;BME280;42565;53.342;-1.534;2023-02-16T10:20:30;98926.47;;;8.71;90.07
56689;BME280;42565;53.342;-1.534;2023-02-16T10:23:03;98926.01;;;8.61;90.20
56689;BME280;42565;53.342;-1.534;2023-02-16T10:25:38;98934.86;;;8.29;91.94
56689;BME280;42565;53.342;-1.534;2023-02-16T10:28:14;98930.65;;;8.32;92.16
56689;BME280;42565;53.342;-1.534;2023-02-16T10:30:47;98934.84;;;8.18;91.31
56689;BME280;42565;53.342;-1.534;2023-02-16T10:33:24;98932.56;;;8.82;89.92
56689;BME280;42565;53.342;-1.534;2023-02-16T10:35:59;98934.31;;;8.86;87.88
56689;BME280;42565;53.342;-1.534;2023-02-16T10:38:32;98935.56;;;8.69;89.71
56689;BME280;42565;53.342;-1.534;2023-02-16T10:41:11;98936.41;;;8.66;90.79
56689;BME280;42565;53.342;-1.534;2023-02-16T10:43:44;98935.47;;;8.74;90.07
56689;BME280;42565;53.342;-1.534;2023-02-16T10:46:21;98923.58;;;9.27;88.65
56689;BME280;42565;53.342;-1.534;2023-02-16T10:48:51;98911.85;;;9.72;86.49
56689;BME280;42565;53.342;-1.534;2023-02-16T10:51:20;98911.22;;;9.43;87.56
56689;BME280;42565;53.342;-1.534;2023-02-16T10:53:52;98911.29;;;9.66;87.27
56689;BME280;42565;53.342;-1.534;2023-02-16T10:56:42;98909.92;;;9.40;88.59
56689;BME280;42565;53.342;-1.534;2023-02-16T10:59:15;98899.74;;;9.42;87.29
56689;BME280;42565;53.342;-1.534;2023-02-16T11:01:44;98903.17;;;10.01;86.63
56689;BME280;42565;53.342;-1.534;2023-02-16T11:04:34;98907.86;;;9.57;87.59
56689;BME280;42565;53.342;-1.534;2023-02-16T11:07:04;98910.71;;;9.76;87.67
56689;BME280;42565;53.342;-1.534;2023-02-16T11:09:32;98913.75;;;10.14;84.72
56689;BME280;42565;53.342;-1.534;2023-02-16T11:11:59;98913.45;;;10.70;83.60
56689;BME280;42565;53.342;-1.534;2023-02-16T11:14:28;98913.84;;;9.37;88.43
56689;BME280;42565;53.342;-1.534;2023-02-16T11:17:06;98909.76;;;10.01;85.52
56689;BME280;42565;53.342;-1.534;2023-02-16T11:19:34;98914.49;;;9.73;85.88
56689;BME280;42565;53.342;-1.534;2023-02-16T11:22:01;98908.15;;;9.61;88.27
56689;BME280;42565;53.342;-1.534;2023-02-16T11:24:31;98914.13;;;9.80;87.31
56689;BME280;42565;53.342;-1.534;2023-02-16T11:27:01;98921.34;;;9.68;89.44
56689;BME280;42565;53.342;-1.534;2023-02-16T11:29:28;98916.89;;;9.71;88.24
56689;BME280;42565;53.342;-1.534;2023-02-16T11:31:56;98919.85;;;9.86;87.62
56689;BME280;42565;53.342;-1.534;2023-02-16T11:34:30;98930.85;;;9.52;88.26
56689;BME280;42565;53.342;-1.534;2023-02-16T11:37:11;98923.88;;;9.84;86.38
56689;BME280;42565;53.342;-1.534;2023-02-16T11:39:45;98911.47;;;10.39;85.01
56689;BME280;42565;53.342;-1.534;2023-02-16T11:42:20;98916.24;;;10.33;84.69
56689;BME280;42565;53.342;-1.534;2023-02-16T11:44:51;98928.22;;;9.89;86.92
56689;BME280;42565;53.342;-1.534;2023-02-16T11:47:23;98940.11;;;10.30;85.61
56689;BME280;42565;53.342;-1.534;2023-02-16T11:50:16;98938.57;;;10.26;85.70
56689;BME280;42565;53.342;-1.534;2023-02-16T11:52:45;98935.47;;;10.44;85.04
56689;BME280;42565;53.342;-1.534;2023-02-16T11:55:20;98937.97;;;10.11;85.47
56689;BME280;42565;53.342;-1.534;2023-02-16T11:57:48;98932.83;;;10.82;85.36
56689;BME280;42565;53.342;-1.534;2023-02-16T12:00:18;98948.67;;;10.78;82.43
56689;BME280;42565;53.342;-1.534;2023-02-16T12:03:06;98959.37;;;10.57;84.09
56689;BME280;42565;53.342;-1.534;2023-02-16T12:05:48;98950.50;;;10.97;83.34
56689;BME280;42565;53.342;-1.534;2023-02-16T12:08:28;98951.53;;;10.71;82.77
56689;BME280;42565;53.342;-1.534;2023-02-16T12:11:08;98939.42;;;10.94;81.90
56689;BME280;42565;53.342;-1.534;2023-02-16T12:13:44;98936.42;;;10.95;81.07
56689;BME280;42565;53.342;-1.534;2023-02-16T12:16:24;98933.25;;;11.55;79.20
56689;BME280;42565;53.342;-1.534;2023-02-16T12:19:07;98931.90;;;11.39;80.39
56689;BME280;42565;53.342;-1.534;2023-02-16T12:21:41;98936.44;;;11.19;80.20
56689;BME280;42565;53.342;-1.534;2023-02-16T12:24:23;98930.35;;;10.86;81.11
56689;BME280;42565;53.342;-1.534;2023-02-16T12:26:56;98938.80;;;10.08;85.00
56689;BME280;42565;53.342;-1.534;2023-02-16T12:29:36;98939.58;;;10.70;83.92
56689;BME280;42565;53.342;-1.534;2023-02-16T12:32:23;98932.36;;;11.35;80.69
56689;BME280;42565;53.342;-1.534;2023-02-16T12:35:06;98929.65;;;11.23;81.00
56689;BME280;42565;53.342;-1.534;2023-02-16T12:37:42;98931.77;;;11.35;80.56
56689;BME280;42565;53.342;-1.534;2023-02-16T12:40:19;98941.50;;;11.94;79.65
56689;BME280;42565;53.342;-1.534;2023-02-16T12:43:00;98938.38;;;11.59;80.46
56689;BME280;42565;53.342;-1.534;2023-02-16T12:45:31;98935.28;;;11.91;78.81
56689;BME280;42565;53.342;-1.534;2023-02-16T12:48:13;98924.60;;;11.21;81.15
56689;BME280;42565;53.342;-1.534;2023-02-16T12:50:45;98932.49;;;11.88;79.60
56689;BME280;42565;53.342;-1.534;2023-02-16T12:53:20;98924.31;;;10.92;81.58
56689;BME280;42565;53.342;-1.534;2023-02-16T12:55:52;98933.21;;;11.14;82.03
56689;BME280;42565;53.342;-1.534;2023-02-16T12:58:22;98930.19;;;11.11;83.10
56689;BME280;42565;53.342;-1.534;2023-02-16T13:00:54;98926.58;;;10.88;82.87
56689;BME280;42565;53.342;-1.534;2023-02-16T13:03:28;98927.96;;;11.13;81.79
56689;BME280;42565;53.342;-1.534;2023-02-16T13:06:05;98919.39;;;11.34;81.95
56689;BME280;42565;53.342;-1.534;2023-02-16T13:08:41;98907.52;;;10.77;84.70
56689;BME280;42565;53.342;-1.534;2023-02-16T13:11:16;98904.95;;;11.35;82.88
56689;BME280;42565;53.342;-1.534;2023-02-16T13:13:47;98910.92;;;11.54;80.39
56689;BME280;42565;53.342;-1.534;2023-02-16T13:16:17;98913.40;;;12.16;78.78